Time;durP1;ratioP1;P1;durP2;ratioP2;P2;SDS_P1;SDS_P2;PMS_P1;PMS_P2;Temp;Humidity;BMP_temperature;BMP_pressure;BME280_temperature;BME280_humidity;BME280_pressure;Samples;Min_cycle;Max_cycle;Signal;HPM_P1;HPM_P2
2023/10/15 00:00:19;;;;;;;5.20;3.20;;;;;;;12.50;59.41;99016.25;6948162;28;20242;-82
2023/10/15 00:03:42;;;;;;;3.93;2.67;;;;;;;13.18;57.32;99012.91;6946227;28;20224;-83
2023/10/15 00:07:06;;;;;;;7.13;3.43;;;;;;;12.76;58.63;99018.91;6944569;28;20269;-81
2023/10/15 00:10:30;;;;;;;4.40;2.80;;;;;;;12.89;58.36;99002.59;6968132;28;20225;-81
2023/10/15 00:13:52;;;;;;;3.97;2.53;;;;;;;12.48;58.54;99018.34;6962462;28;20213;-83
2023/10/15 00:17:13;;;;;;;5.13;2.50;;;;;;;12.56;58.68;99028.97;6974650;28;20806;-82
2023/10/15 00:20:38;;;;;;;4.00;2.60;;;;;;;12.67;59.18;98995.81;6973986;28;20297;-82
2023/10/15 00:24:01;;;;;;;4.33;2.40;;;;;;;13.05;56.65;98999.44;6965855;28;20262;-82
2023/10/15 00:27:23;;;;;;;6.43;2.30;;;;;;;13.06;57.27;99009.22;6963355;28;20223;-81
2023/10/15 00:30:48;;;;;;;4.13;2.90;;;;;;;13.30;56.35;99013.88;6971629;28;20269;-87
2023/10/15 00:34:12;;;;;;;4.93;2.33;;;;;;;13.18;55.91;99018.31;6970784;28;20207;-82
2023/10/15 00:37:35;;;;;;;3.87;2.23;;;;;;;12.55;56.20;98965.06;6972506;28;20260;-82
2023/10/15 00:41:00;;;;;;;5.37;2.53;;;;;;;13.03;56.64;99017.75;6946721;28;20719;-82
2023/10/15 00:44:22;;;;;;;7.20;2.50;;;;;;;12.94;55.93;99010.91;6916897;28;20438;-81
2023/10/15 00:47:44;;;;;;;4.23;2.60;;;;;;;12.61;57.22;99011.03;6917649;28;20362;-82
2023/10/15 00:51:11;;;;;;;4.20;2.30;;;;;;;12.60;57.13;99006.69;6972524;28;20214;-81
2023/10/15 00:54:34;;;;;;;6.60;2.50;;;;;;;12.68;56.47;98986.69;6971810;28;20541;-81
2023/10/15 00:57:57;;;;;;;7.23;2.70;;;;;;;12.70;57.04;99003.53;6966763;28;20206;-81
2023/10/15 01:01:26;;;;;;;4.17;2.50;;;;;;;12.77;56.91;98993.50;6970839;28;20202;-83
2023/10/15 01:04:48;;;;;;;8.63;3.00;;;;;;;12.61;56.74;98973.16;6969485;28;20579;-81
2023/10/15 01:08:09;;;;;;;3.43;2.17;;;;;;;12.58;58.09;98992.50;6953342;28;20203;-82
2023/10/15 01:11:32;;;;;;;3.60;2.37;;;;;;;12.75;58.16;98998.31;6945247;28;20207;-81
2023/10/15 01:14:54;;;;;;;5.50;2.33;;;;;;;12.96;57.50;98987.19;6961030;28;20756;-82
2023/10/15 01:18:16;;;;;;;3.93;2.30;;;;;;;13.05;57.34;98985.91;6972980;28;20230;-82
2023/10/15 01:21:43;;;;;;;2.77;2.10;;;;;;;13.16;57.04;98996.06;6972452;28;20720;-82
2023/10/15 01:25:18;;;;;;;4.70;2.60;;;;;;;13.30;56.42;98987.66;6959745;28;20239;-81
2023/10/15 01:28:40;;;;;;;4.77;2.50;;;;;;;12.73;58.19;98993.09;6960584;28;20199;-84
2023/10/15 01:32:07;;;;;;;6.90;2.70;;;;;;;13.12;57.99;98989.41;6949051;28;20662;-83
2023/10/15 01:35:28;;;;;;;5.97;2.50;;;;;;;13.00;57.89;98986.56;6968473;28;20290;-82
2023/10/15 01:38:54;;;;;;;7.17;2.67;;;;;;;13.24;57.27;98983.09;6971946;28;20280;-81
2023/10/15 01:42:40;;;;;;;5.73;2.37;;;;;;;13.24;57.04;98984.97;6955361;28;20181;-83
2023/10/15 01:46:07;;;;;;;3.13;2.37;;;;;;;13.42;57.07;98974.22;6958492;28;20233;-82
2023/10/15 01:49:31;;;;;;;5.07;2.20;;;;;;;13.46;56.80;98989.00;6967683;28;20202;-82
2023/10/15 01:53:01;;;;;;;4.83;2.27;;;;;;;13.42;57.22;98999.44;6983584;28;20564;-81
2023/10/15 01:56:23;;;;;;;3.20;2.00;;;;;;;13.45;56.43;98952.94;6984124;28;20232;-84
2023/10/15 01:59:46;;;;;;;3.80;2.27;;;;;;;13.13;57.43;98997.31;6981081;28;20207;-83
2023/10/15 02:03:09;;;;;;;4.33;2.70;;;;;;;12.70;59.67;98990.81;6966148;28;20234;-81
2023/10/15 02:06:35;;;;;;;5.23;2.60;;;;;;;13.27;58.38;98979.94;6973868;28;20223;-83
2023/10/15 02:09:57;;;;;;;7.30;2.60;;;;;;;13.23;58.30;98986.81;6950822;28;20209;-84
2023/10/15 02:13:19;;;;;;;4.10;2.50;;;;;;;13.53;57.48;98984.34;6950149;28;20282;-81
2023/10/15 02:16:42;;;;;;;3.10;2.30;;;;;;;13.58;57.38;98976.41;6977767;28;20258;-84
2023/10/15 02:20:08;;;;;;;3.13;2.37;;;;;;;13.79;56.20;98971.44;6978298;28;20273;-81
2023/10/15 02:23:32;;;;;;;5.27;2.40;;;;;;;13.88;56.57;98967.41;6937320;28;20228;-82
2023/10/15 02:26:54;;;;;;;3.83;2.70;;;;;;;13.88;56.32;98975.53;6945553;28;20372;-82
2023/10/15 02:30:16;;;;;;;4.60;2.33;;;;;;;14.09;55.41;98975.13;6960205;28;20206;-82
2023/10/15 02:33:39;;;;;;;4.90;2.27;;;;;;;14.05;55.12;98976.59;6949716;28;20302;-84
2023/10/15 02:37:04;;;;;;;5.60;2.53;;;;;;;13.46;56.83;98980.88;6949081;28;20234;-81
2023/10/15 02:40:35;;;;;;;2.80;2.27;;;;;;;13.43;57.96;98982.13;6955752;28;20202;-81
2023/10/15 02:43:56;;;;;;;8.17;2.67;;;;;;;13.68;56.92;98980.28;6946086;28;20785;-81
2023/10/15 02:47:28;;;;;;;4.47;2.33;;;;;;;13.38;57.97;98968.41;6922514;28;20255;-82
2023/10/15 02:50:59;;;;;;;3.90;2.20;;;;;;;13.74;57.75;98965.03;6959019;28;20674;-82
2023/10/15 02:54:27;;;;;;;6.43;2.33;;;;;;;13.46;57.89;98940.25;6971039;28;20199;-81
2023/10/15 02:57:51;;;;;;;6.30;2.47;;;;;;;13.69;57.52;98956.72;6950283;28;20224;-82
2023/10/15 03:01:17;;;;;;;4.90;2.03;;;;;;;13.48;58.25;98941.69;6952936;28;20294;-82
2023/10/15 03:04:38;;;;;;;9.40;2.73;;;;;;;13.54;57.98;98970.59;6957487;28;20224;-82
2023/10/15 03:08:01;;;;;;;5.03;2.67;;;;;;;13.29;58.31;98956.16;6989336;28;20210;-82
2023/10/15 03:11:24;;;;;;;4.10;2.43;;;;;;;13.76;57.77;98952.06;6991252;28;20222;-83
2023/10/15 03:14:45;;;;;;;3.73;2.40;;;;;;;13.93;56.91;98955.88;6982847;28;20225;-84
2023/10/15 03:18:14;;;;;;;4.13;2.13;;;;;;;13.88;57.32;98953.00;6974271;28;20571;-82
2023/10/15 03:21:39;;;;;;;4.97;2.70;;;;;;;14.06;57.04;98945.75;6975339;28;20215;-81
2023/10/15 03:25:03;;;;;;;2.87;2.27;;;;;;;14.16;56.49;98953.38;6964827;28;20223;-81
2023/10/15 03:28:24;;;;;;;3.03;2.73;;;;;;;14.02;56.62;98962.66;6950659;28;20202;-81
2023/10/15 03:31:47;;;;;;;5.13;3.00;;;;;;;14.27;55.86;98955.38;6963230;28;20215;-81
2023/10/15 03:35:16;;;;;;;4.60;2.43;;;;;;;13.99;56.74;98957.72;6972129;28;20601;-81
2023/10/15 03:38:37;;;;;;;2.30;2.10;;;;;;;14.34;56.27;98965.06;6950098;28;20200;-81
2023/10/15 03:42:09;;;;;;;5.17;2.80;;;;;;;14.23;56.39;98949.53;6947220;28;20232;-81
2023/10/15 03:45:33;;;;;;;9.03;3.37;;;;;;;13.99;57.46;98955.00;6947618;28;20234;-82
2023/10/15 03:48:55;;;;;;;3.50;2.40;;;;;;;13.65;57.68;98925.69;6935482;28;21243;-81
2023/10/15 03:52:20;;;;;;;6.03;2.77;;;;;;;13.90;56.60;98905.66;6953637;28;20329;-82
2023/10/15 03:55:41;;;;;;;3.20;2.83;;;;;;;13.95;57.46;98961.91;6961639;28;20219;-84
2023/10/15 03:59:05;;;;;;;6.37;2.70;;;;;;;13.97;58.18;98970.63;6947203;28;20340;-83
2023/10/15 04:02:39;;;;;;;7.33;2.80;;;;;;;13.82;58.56;98965.59;6940985;28;20201;-82
2023/10/15 04:06:05;;;;;;;5.30;2.80;;;;;;;14.26;57.72;98969.97;6946040;28;20238;-82
2023/10/15 04:09:27;;;;;;;3.67;2.50;;;;;;;14.08;57.99;98973.47;6952537;28;20565;-85
2023/10/15 04:12:49;;;;;;;3.10;2.50;;;;;;;14.19;57.81;98961.06;6946117;28;20281;-82
2023/10/15 04:16:12;;;;;;;3.87;2.40;;;;;;;14.29;57.70;98967.63;6951963;28;20286;-82
2023/10/15 04:19:35;;;;;;;3.90;2.57;;;;;;;14.05;57.96;98963.03;6965153;28;20199;-81
2023/10/15 04:22:57;;;;;;;3.80;2.60;;;;;;;14.28;57.70;98957.84;6945914;28;20226;-82
2023/10/15 04:26:22;;;;;;;7.00;2.83;;;;;;;13.94;58.48;98969.22;6946073;28;20735;-81
2023/10/15 04:29:49;;;;;;;3.47;2.40;;;;;;;14.33;57.42;98959.91;6946423;28;20203;-81
2023/10/15 04:33:13;;;;;;;5.63;2.50;;;;;;;14.10;58.75;98960.50;6944300;28;20210;-82
2023/10/15 04:36:40;;;;;;;5.90;2.43;;;;;;;14.14;58.32;98966.31;6946371;28;20242;-82
2023/10/15 04:40:04;;;;;;;4.10;2.40;;;;;;;14.35;58.54;98963.22;6946613;28;20193;-81
2023/10/15 04:43:26;;;;;;;4.40;2.63;;;;;;;14.57;57.65;98957.09;6945302;28;20255;-82
2023/10/15 04:46:52;;;;;;;7.43;2.67;;;;;;;14.20;58.11;98954.59;6946142;28;20793;-81
2023/10/15 04:50:15;;;;;;;3.07;2.63;;;;;;;14.10;59.07;98943.41;6945899;28;20199;-82
2023/10/15 04:53:37;;;;;;;3.37;2.77;;;;;;;13.95;59.07;98916.66;6943814;28;20206;-83
2023/10/15 04:56:58;;;;;;;4.63;2.93;;;;;;;14.22;59.08;98958.75;6947470;28;20353;-82
2023/10/15 05:00:25;;;;;;;5.27;3.17;;;;;;;14.19;59.33;98931.25;6949660;28;20369;-82
2023/10/15 05:03:46;;;;;;;6.03;3.10;;;;;;;14.51;58.84;98932.78;6941893;28;20329;-81
2023/10/15 05:07:09;;;;;;;8.00;2.63;;;;;;;14.84;58.21;98957.59;6950076;28;20306;-82
2023/10/15 05:10:33;;;;;;;5.47;2.47;;;;;;;14.42;59.05;98961.25;6956159;28;20206;-82
2023/10/15 05:13:54;;;;;;;4.17;2.33;;;;;;;14.19;60.02;98978.19;6951962;28;20266;-83
2023/10/15 05:17:16;;;;;;;4.73;3.00;;;;;;;14.33;59.53;98968.84;6948655;28;20379;-81
2023/10/15 05:20:38;;;;;;;5.47;2.67;;;;;;;14.66;58.58;98971.19;6948919;28;20218;-84
2023/10/15 05:24:03;;;;;;;3.43;2.33;;;;;;;14.84;57.85;98973.88;6946820;28;20768;-82
2023/10/15 05:27:25;;;;;;;4.47;2.53;;;;;;;14.75;58.73;98969.84;6949204;28;20361;-84
2023/10/15 05:30:46;;;;;;;4.70;2.60;;;;;;;14.80;57.79;98954.50;6926227;28;20697;-83
2023/10/15 05:34:08;;;;;;;5.20;2.40;;;;;;;14.53;58.44;98965.91;6948759;28;20307;-83
2023/10/15 05:37:30;;;;;;;2.43;2.23;;;;;;;14.33;59.29;98971.56;6963314;28;20307;-82
2023/10/15 05:40:58;;;;;;;7.23;3.00;;;;;;;14.30;59.18;98985.59;6942496;28;20290;-83
2023/10/15 05:44:19;;;;;;;4.60;2.57;;;;;;;14.42;59.09;98991.94;6923058;28;20597;-84
2023/10/15 05:47:42;;;;;;;3.47;2.50;;;;;;;14.24;59.44;98951.22;6943677;28;20306;-85
2023/10/15 05:51:04;;;;;;;5.63;2.60;;;;;;;13.36;62.41;98994.06;6955951;28;20201;-83
2023/10/15 05:54:26;;;;;;;5.53;2.90;;;;;;;13.55;62.12;98998.50;6974859;28;20230;-82
2023/10/15 05:57:49;;;;;;;5.30;2.90;;;;;;;13.89;61.17;99000.75;6950101;28;20276;-82
2023/10/15 06:01:11;;;;;;;3.53;2.70;;;;;;;14.18;60.28;98998.19;6941257;28;20633;-83
2023/10/15 06:04:32;;;;;;;5.63;2.80;;;;;;;14.28;61.12;99008.56;6946188;28;20731;-81
2023/10/15 06:07:54;;;;;;;4.67;2.87;;;;;;;14.42;61.08;99015.50;6922562;28;20195;-83
2023/10/15 06:11:16;;;;;;;11.20;3.30;;;;;;;14.36;60.56;99022.66;6947491;28;20588;-84
2023/10/15 06:14:39;;;;;;;6.03;3.00;;;;;;;14.19;60.75;99008.00;6947696;28;20200;-84
2023/10/15 06:18:00;;;;;;;5.23;3.20;;;;;;;14.38;61.26;99025.13;6948092;28;20337;-83
2023/10/15 06:21:22;;;;;;;5.00;2.70;;;;;;;14.76;60.56;99020.34;6948440;28;20294;-84
2023/10/15 06:24:46;;;;;;;5.60;2.77;;;;;;;14.95;59.38;99013.84;6950468;28;20318;-83
2023/10/15 06:28:13;;;;;;;5.57;2.70;;;;;;;14.88;59.15;99003.09;6932917;28;20220;-84
2023/10/15 06:31:37;;;;;;;5.50;2.97;;;;;;;14.69;59.67;99036.69;6917654;28;20201;-83
2023/10/15 06:34:59;;;;;;;6.30;2.97;;;;;;;14.55;61.03;99040.63;6936803;28;20322;-83
2023/10/15 06:38:20;;;;;;;5.47;3.70;;;;;;;14.32;60.83;99048.56;6948251;28;20298;-83
2023/10/15 06:41:41;;;;;;;8.13;3.37;;;;;;;14.73;61.11;99039.78;6946568;28;20290;-82
2023/10/15 06:45:06;;;;;;;4.33;2.77;;;;;;;14.59;60.08;99035.56;6943372;28;20323;-84
2023/10/15 06:48:29;;;;;;;7.47;3.37;;;;;;;14.72;59.79;99035.41;6945483;28;20213;-82
2023/10/15 06:51:51;;;;;;;5.77;2.93;;;;;;;14.82;60.00;99041.16;6934895;28;20722;-82
2023/10/15 06:55:13;;;;;;;6.60;2.90;;;;;;;15.09;59.74;99047.91;6946997;28;20369;-83
2023/10/15 06:58:40;;;;;;;7.90;4.53;;;;;;;15.19;59.20;99023.78;6973537;28;20208;-82
2023/10/15 07:02:03;;;;;;;6.83;3.90;;;;;;;15.25;59.35;99041.88;6974453;28;20197;-83
2023/10/15 07:05:26;;;;;;;5.27;3.10;;;;;;;15.19;58.43;99056.38;6959075;28;20381;-82
2023/10/15 07:08:49;;;;;;;7.30;2.87;;;;;;;14.71;58.58;99058.19;6951389;28;20267;-83
2023/10/15 07:12:10;;;;;;;6.60;3.00;;;;;;;15.07;58.98;99053.59;6946325;28;20239;-82
2023/10/15 07:15:35;;;;;;;5.20;2.70;;;;;;;15.00;59.46;99060.16;6946055;28;20789;-82
2023/10/15 07:18:56;;;;;;;5.27;3.17;;;;;;;15.22;58.59;99062.16;6944078;28;20213;-82
2023/10/15 07:22:20;;;;;;;10.27;3.53;;;;;;;15.69;57.84;99060.53;6944929;28;20251;-82
2023/10/15 07:25:43;;;;;;;7.20;3.63;;;;;;;15.52;57.71;99056.81;6945307;28;20229;-82
2023/10/15 07:29:05;;;;;;;6.00;3.10;;;;;;;15.47;57.10;99056.66;6917467;28;20785;-82
2023/10/15 07:32:26;;;;;;;7.00;3.33;;;;;;;16.13;56.02;99065.47;6945763;28;20210;-81
2023/10/15 07:35:49;;;;;;;7.27;3.20;;;;;;;16.60;56.37;99069.91;6944253;28;20293;-81
2023/10/15 07:39:11;;;;;;;4.20;2.30;;;;;;;17.44;52.34;99068.25;6933742;28;20649;-81
2023/10/15 07:42:33;;;;;;;6.03;2.83;;;;;;;17.00;53.84;99049.03;6967020;28;20198;-82
2023/10/15 07:45:55;;;;;;;4.23;2.57;;;;;;;17.37;51.46;99062.09;6979784;28;20328;-81
2023/10/15 07:49:18;;;;;;;6.47;2.73;;;;;;;17.94;50.23;99058.31;6973357;28;20203;-82
2023/10/15 07:52:39;;;;;;;5.30;2.90;;;;;;;18.21;48.49;99031.22;6953364;28;20215;-82
2023/10/15 07:56:02;;;;;;;5.03;2.47;;;;;;;17.62;51.12;99064.50;6961435;28;20223;-83
2023/10/15 07:59:24;;;;;;;5.10;3.33;;;;;;;17.29;51.92;99069.81;6981915;28;20237;-81
2023/10/15 08:02:46;;;;;;;6.30;2.73;;;;;;;16.44;52.62;99078.78;6981497;28;20218;-81
2023/10/15 08:06:08;;;;;;;5.93;2.50;;;;;;;16.35;53.99;99072.03;6965222;28;20236;-81
2023/10/15 08:09:30;;;;;;;6.07;2.80;;;;;;;15.95;53.49;99092.75;6953208;28;20226;-82
2023/10/15 08:12:53;;;;;;;7.93;2.63;;;;;;;16.07;53.01;99080.84;6950041;28;20730;-82
2023/10/15 08:16:16;;;;;;;4.77;2.20;;;;;;;15.84;52.23;99077.22;6975051;28;20307;-82
2023/10/15 08:19:37;;;;;;;4.90;2.27;;;;;;;16.37;51.81;99073.44;6962464;28;20204;-82
2023/10/15 08:22:59;;;;;;;5.40;2.37;;;;;;;17.19;49.12;99075.91;6975616;28;20282;-82
2023/10/15 08:26:20;;;;;;;6.87;3.03;;;;;;;16.98;48.54;99075.72;6944603;28;20248;-80
2023/10/15 08:29:44;;;;;;;4.67;2.43;;;;;;;17.53;47.51;99071.44;6979236;28;20288;-79
2023/10/15 08:33:12;;;;;;;4.00;2.30;;;;;;;18.62;44.75;99052.63;6981954;28;20210;-80
2023/10/15 08:36:33;;;;;;;5.23;2.20;;;;;;;18.10;44.69;99068.41;6984075;28;20229;-81
2023/10/15 08:39:55;;;;;;;9.20;2.57;;;;;;;18.07;45.26;99076.25;6960709;28;20223;-82
2023/10/15 08:43:20;;;;;;;3.00;2.20;;;;;;;18.54;46.10;99072.16;6939117;28;20207;-81
2023/10/15 08:46:43;;;;;;;4.67;2.27;;;;;;;18.23;44.38;99083.66;6934401;28;20227;-81
2023/10/15 08:50:06;;;;;;;4.13;2.23;;;;;;;17.49;45.49;99087.44;6981650;28;20617;-81
2023/10/15 08:53:30;;;;;;;4.90;2.53;;;;;;;17.40;46.34;99074.44;6965186;28;20243;-81
2023/10/15 08:56:54;;;;;;;8.50;2.10;;;;;;;16.72;46.67;99035.34;6970250;28;20216;-83
2023/10/15 09:00:26;;;;;;;5.73;2.80;;;;;;;16.99;46.18;99080.09;6945633;28;20295;-82
2023/10/15 09:03:49;;;;;;;7.30;2.43;;;;;;;16.62;47.39;99071.34;6948298;28;20229;-82
2023/10/15 09:07:10;;;;;;;6.27;2.27;;;;;;;16.73;47.08;99086.00;6942293;28;20227;-81
2023/10/15 09:10:32;;;;;;;7.07;2.10;;;;;;;16.71;45.61;99086.28;6946307;28;20204;-81
2023/10/15 09:13:58;;;;;;;6.83;3.30;;;;;;;16.83;45.01;99054.41;6940834;28;20265;-82
2023/10/15 09:17:19;;;;;;;7.33;2.23;;;;;;;17.50;43.86;99066.44;6951297;28;20724;-84
2023/10/15 09:20:44;;;;;;;7.07;2.33;;;;;;;18.30;41.99;99068.78;6954232;28;20229;-81
2023/10/15 09:24:07;;;;;;;6.40;2.13;;;;;;;17.42;43.79;99092.22;6951093;28;20237;-81
2023/10/15 09:27:29;;;;;;;3.80;1.67;;;;;;;18.34;43.33;99082.78;6945121;28;20705;-82
2023/10/15 09:30:51;;;;;;;7.17;2.43;;;;;;;18.44;42.88;99081.03;6940597;28;20248;-81
2023/10/15 09:34:13;;;;;;;6.37;2.07;;;;;;;17.40;43.64;99105.25;6939037;28;20221;-81
2023/10/15 09:37:36;;;;;;;3.17;1.87;;;;;;;17.11;44.63;99105.41;6953898;28;20312;-80
2023/10/15 09:40:58;;;;;;;4.70;2.13;;;;;;;17.39;44.71;99100.06;6929784;28;20207;-83
2023/10/15 09:44:20;;;;;;;8.77;2.20;;;;;;;17.28;44.42;99092.69;6948401;28;20210;-83
2023/10/15 09:47:48;;;;;;;6.80;2.60;;;;;;;17.06;44.96;99110.75;6927513;28;20261;-84
2023/10/15 09:51:11;;;;;;;6.37;2.30;;;;;;;17.31;44.91;99078.56;6946549;28;20194;-83
2023/10/15 09:54:34;;;;;;;7.73;2.53;;;;;;;17.94;43.64;99106.59;6958007;28;20225;-84
2023/10/15 09:57:56;;;;;;;6.13;1.87;;;;;;;17.77;43.71;99100.25;6937927;28;20211;-82
2023/10/15 10:01:26;;;;;;;4.73;2.23;;;;;;;17.71;42.24;99112.97;6946233;28;20681;-85
2023/10/15 10:05:05;;;;;;;4.83;2.37;;;;;;;17.55;42.52;99107.44;6938374;28;20196;-85
2023/10/15 10:08:37;;;;;;;6.30;2.30;;;;;;;17.05;42.94;99114.53;6942741;28;20207;-84
2023/10/15 10:12:11;;;;;;;3.87;2.30;;;;;;;17.34;43.04;99102.63;6942589;28;20294;-83
2023/10/15 10:15:40;;;;;;;2.50;1.90;;;;;;;18.01;41.09;99086.28;6944587;28;20726;-84
2023/10/15 10:19:02;;;;;;;4.70;1.80;;;;;;;18.24;40.11;99091.59;6944742;28;20195;-82
2023/10/15 10:22:27;;;;;;;1.93;1.60;;;;;;;18.12;37.83;99077.19;6939182;28;20685;-83
2023/10/15 10:25:49;;;;;;;3.63;1.80;;;;;;;18.64;36.74;99091.44;6934584;28;20251;-84
2023/10/15 10:29:14;;;;;;;4.93;2.10;;;;;;;18.12;37.94;99092.72;6936576;28;20614;-84
2023/10/15 10:32:35;;;;;;;4.67;2.40;;;;;;;17.43;40.45;99101.22;6928166;28;20210;-83
2023/10/15 10:36:00;;;;;;;3.70;1.77;;;;;;;16.44;42.25;99103.28;6945678;28;21146;-83
2023/10/15 10:39:22;;;;;;;5.10;2.33;;;;;;;16.84;41.19;99096.06;6947227;28;20725;-83
2023/10/15 10:42:44;;;;;;;8.97;5.00;;;;;;;17.96;40.04;99071.69;6934712;28;20306;-83
2023/10/15 10:46:07;;;;;;;3.23;1.87;;;;;;;17.63;36.64;99067.00;6937391;28;20289;-83
2023/10/15 10:49:34;;;;;;;3.93;2.07;;;;;;;18.94;36.43;99081.81;6942098;28;20206;-83
2023/10/15 10:53:13;;;;;;;2.77;1.67;;;;;;;18.19;36.85;99099.69;6939066;28;20199;-84
2023/10/15 10:56:56;;;;;;;2.87;1.90;;;;;;;16.94;39.52;99118.94;6926090;28;20220;-82
2023/10/15 11:00:18;;;;;;;2.00;1.60;;;;;;;15.92;40.52;99112.28;6936381;28;20199;-82
2023/10/15 11:03:41;;;;;;;1.70;1.60;;;;;;;14.70;45.26;99129.81;6936023;28;20669;-81
2023/10/15 11:07:03;;;;;;;3.03;1.33;;;;;;;15.87;46.87;99109.41;6925552;28;20233;-81
2023/10/15 11:10:25;;;;;;;1.90;1.67;;;;;;;16.41;45.08;99110.06;6929460;28;20213;-81
2023/10/15 11:13:48;;;;;;;3.23;1.70;;;;;;;16.57;44.88;99105.81;6944159;28;20217;-81
2023/10/15 11:17:10;;;;;;;3.97;1.80;;;;;;;16.35;42.85;99118.28;6939082;28;20218;-81
2023/10/15 11:20:33;;;;;;;2.13;1.90;;;;;;;16.00;44.01;99114.66;6936927;28;20270;-80
2023/10/15 11:23:56;;;;;;;2.00;1.80;;;;;;;16.39;44.70;99133.13;6928441;28;20210;-83
2023/10/15 11:27:19;;;;;;;3.87;1.90;;;;;;;16.60;43.61;99129.81;6928494;28;20321;-81
2023/10/15 11:30:41;;;;;;;3.33;2.30;;;;;;;15.97;43.83;99113.22;6941339;28;20206;-80
2023/10/15 11:34:03;;;;;;;3.77;2.10;;;;;;;16.24;45.05;99119.09;6933022;28;20222;-81
2023/10/15 11:37:29;;;;;;;2.53;1.70;;;;;;;16.78;43.06;99067.06;6927226;28;20214;-82
2023/10/15 11:40:54;;;;;;;3.63;1.90;;;;;;;17.44;42.38;99103.69;6944860;28;20213;-81
2023/10/15 11:44:17;;;;;;;1.70;1.60;;;;;;;17.49;41.18;99105.69;6929879;28;20203;-81
2023/10/15 11:47:41;;;;;;;3.03;1.73;;;;;;;17.74;38.95;99106.22;6930021;28;20719;-81
2023/10/15 11:51:05;;;;;;;3.70;1.80;;;;;;;18.68;38.51;99106.25;6929327;28;20226;-82
2023/10/15 11:54:30;;;;;;;3.07;1.80;;;;;;;18.88;37.46;99098.38;6934494;28;20218;-82
2023/10/15 11:57:51;;;;;;;2.30;1.70;;;;;;;18.30;39.18;99095.22;6945602;28;20223;-82
2023/10/15 12:01:14;;;;;;;2.53;2.00;;;;;;;19.99;38.39;99082.28;6949020;28;20198;-83
2023/10/15 12:04:36;;;;;;;3.97;2.30;;;;;;;18.72;38.76;99097.31;6952545;28;20238;-83
2023/10/15 12:07:58;;;;;;;3.63;1.63;;;;;;;18.22;39.29;99101.91;6948686;28;20219;-83
2023/10/15 12:11:22;;;;;;;4.23;2.40;;;;;;;18.05;38.31;99092.88;6947975;28;20303;-82
2023/10/15 12:14:43;;;;;;;6.10;2.30;;;;;;;16.74;38.87;99074.09;6974162;28;20216;-82
2023/10/15 12:18:05;;;;;;;5.70;2.80;;;;;;;17.32;38.65;99091.13;6971488;28;20287;-82
2023/10/15 12:21:27;;;;;;;3.37;1.77;;;;;;;17.86;37.55;99096.88;6942217;28;20297;-83
2023/10/15 12:24:48;;;;;;;2.30;1.60;;;;;;;18.64;36.04;99094.19;6924293;28;21089;-82
2023/10/15 12:28:11;;;;;;;4.80;1.90;;;;;;;19.06;35.27;99082.53;6955887;28;20245;-82
2023/10/15 12:31:33;;;;;;;5.10;2.00;;;;;;;18.96;35.48;99082.38;6954822;28;20660;-82
2023/10/15 12:34:54;;;;;;;2.83;1.83;;;;;;;17.96;34.53;99063.50;6949807;28;20238;-82
2023/10/15 12:38:26;;;;;;;6.00;1.77;;;;;;;17.16;34.74;99065.47;6955176;28;20211;-82
2023/10/15 12:41:50;;;;;;;1.83;1.40;;;;;;;18.00;34.50;99090.06;6941785;28;20206;-82
2023/10/15 12:45:13;;;;;;;2.80;1.80;;;;;;;17.93;33.93;99088.56;6955849;28;20238;-81
2023/10/15 12:48:35;;;;;;;4.93;1.83;;;;;;;18.20;33.61;99084.97;6944070;28;20208;-82
2023/10/15 12:51:58;;;;;;;2.27;1.87;;;;;;;17.70;34.60;99073.13;6944591;28;20313;-82
2023/10/15 12:55:20;;;;;;;3.00;1.80;;;;;;;17.82;35.18;99078.53;6949412;28;20233;-81
2023/10/15 12:58:41;;;;;;;2.90;1.80;;;;;;;17.91;34.53;99085.25;6948083;28;20716;-83
2023/10/15 13:02:04;;;;;;;2.90;1.70;;;;;;;18.14;34.28;99071.47;6939817;28;20353;-83
2023/10/15 13:05:27;;;;;;;2.40;1.60;;;;;;;17.95;34.35;99053.69;6939327;28;20223;-84
2023/10/15 13:08:49;;;;;;;3.20;1.77;;;;;;;17.59;35.08;99103.19;6934674;28;20199;-82
2023/10/15 13:12:10;;;;;;;2.20;1.47;;;;;;;17.80;34.56;99113.44;6939639;28;20217;-82
2023/10/15 13:15:32;;;;;;;2.10;1.70;;;;;;;17.56;34.75;99114.56;6934260;28;20235;-82
2023/10/15 13:18:56;;;;;;;3.20;2.33;;;;;;;17.26;37.63;99117.47;6948835;28;20281;-82
2023/10/15 13:22:20;;;;;;;10.87;7.43;;;;;;;17.57;38.10;99116.25;6946554;28;20296;-82
2023/10/15 13:25:41;;;;;;;3.60;1.90;;;;;;;17.52;36.81;99125.13;6946606;28;20262;-83
2023/10/15 13:29:03;;;;;;;5.10;2.20;;;;;;;17.88;36.80;99123.94;6954583;28;20250;-82
2023/10/15 13:32:25;;;;;;;4.73;2.30;;;;;;;17.53;36.67;99125.97;6953911;28;20212;-82
2023/10/15 13:35:47;;;;;;;2.73;1.70;;;;;;;17.07;38.09;99136.91;6953302;28;20242;-82
2023/10/15 13:39:18;;;;;;;3.37;1.70;;;;;;;16.93;38.34;99130.06;6961625;28;20205;-83
2023/10/15 13:42:42;;;;;;;3.33;1.80;;;;;;;17.30;38.00;99136.88;6950859;28;20269;-82
2023/10/15 13:46:04;;;;;;;4.23;1.50;;;;;;;17.36;37.43;99144.94;6960965;28;20237;-82
2023/10/15 13:49:25;;;;;;;4.50;2.00;;;;;;;17.44;37.31;99146.47;6955267;28;20197;-82
2023/10/15 13:52:48;;;;;;;3.20;1.93;;;;;;;18.15;36.78;99147.66;6960930;28;20758;-82
2023/10/15 13:56:10;;;;;;;7.63;4.20;;;;;;;18.38;36.25;99138.50;6957613;28;20624;-81
2023/10/15 13:59:31;;;;;;;6.60;4.07;;;;;;;18.39;33.96;99132.81;6944636;28;20230;-82
2023/10/15 14:02:54;;;;;;;6.37;4.27;;;;;;;18.33;32.38;99143.91;6949336;28;20297;-82
2023/10/15 14:06:15;;;;;;;8.83;6.03;;;;;;;18.14;32.11;99120.59;6951745;28;20729;-82
2023/10/15 14:09:39;;;;;;;4.00;2.87;;;;;;;18.14;32.07;99128.78;6944389;28;20266;-81
2023/10/15 14:13:00;;;;;;;2.40;1.87;;;;;;;17.60;32.15;99126.66;6941099;28;20212;-83
2023/10/15 14:16:22;;;;;;;3.70;3.23;;;;;;;17.70;32.89;99135.03;6944132;28;20254;-82
2023/10/15 14:19:43;;;;;;;4.07;2.47;;;;;;;17.38;33.30;99153.72;6944093;28;20210;-82
2023/10/15 14:23:05;;;;;;;1.90;1.60;;;;;;;17.11;33.95;99151.72;6950028;28;20210;-81
2023/10/15 14:26:27;;;;;;;5.00;1.90;;;;;;;17.46;33.96;99152.53;6946064;28;20234;-80
2023/10/15 14:29:49;;;;;;;2.67;1.70;;;;;;;17.84;33.18;99139.97;6943373;28;20253;-81
2023/10/15 14:33:11;;;;;;;2.93;1.87;;;;;;;17.77;33.62;99154.81;6943235;28;20215;-81
2023/10/15 14:36:38;;;;;;;3.73;1.80;;;;;;;17.11;35.83;99089.88;6955610;28;20235;-81
2023/10/15 14:40:00;;;;;;;3.20;1.50;;;;;;;16.40;39.95;99118.44;6963261;28;20259;-81
2023/10/15 14:43:23;;;;;;;2.40;2.20;;;;;;;16.98;41.32;99174.59;6958169;28;20672;-81
2023/10/15 14:46:45;;;;;;;2.43;1.80;;;;;;;16.23;40.34;99171.84;6954959;28;20300;-81
2023/10/15 14:50:07;;;;;;;2.63;1.70;;;;;;;16.41;41.71;99178.09;6949764;28;20672;-81
2023/10/15 14:53:29;;;;;;;1.77;1.57;;;;;;;16.43;41.45;99181.41;6952920;28;20204;-81
2023/10/15 14:56:51;;;;;;;3.37;1.97;;;;;;;16.39;40.38;99184.81;6946809;28;20257;-80
2023/10/15 15:00:15;;;;;;;3.03;1.90;;;;;;;17.19;39.82;99187.63;6944914;28;20303;-80
2023/10/15 15:03:36;;;;;;;3.87;2.30;;;;;;;17.52;37.75;99159.75;6946680;28;20292;-81
2023/10/15 15:06:58;;;;;;;4.17;3.13;;;;;;;17.97;36.47;99175.13;6946171;28;20279;-81
2023/10/15 15:10:19;;;;;;;2.63;2.43;;;;;;;17.93;35.15;99193.06;6948180;28;20237;-81
2023/10/15 15:13:41;;;;;;;5.77;3.47;;;;;;;17.84;34.58;99199.13;6928771;28;20215;-81
2023/10/15 15:17:05;;;;;;;4.03;2.90;;;;;;;17.32;34.94;99146.47;6942291;28;20291;-81
2023/10/15 15:20:26;;;;;;;2.53;1.73;;;;;;;17.44;34.83;99201.00;6953253;28;20237;-80
2023/10/15 15:23:48;;;;;;;2.67;1.80;;;;;;;16.85;35.85;99193.03;6942592;28;20248;-81
2023/10/15 15:27:11;;;;;;;1.60;1.50;;;;;;;17.17;35.23;99194.38;6945983;28;20921;-79
2023/10/15 15:30:33;;;;;;;3.40;1.53;;;;;;;17.10;34.88;99207.28;6945652;28;20305;-79
2023/10/15 15:33:56;;;;;;;1.83;1.30;;;;;;;17.32;36.09;99202.88;6944969;28;20275;-82
2023/10/15 15:37:17;;;;;;;2.97;1.90;;;;;;;17.43;35.98;99189.28;6946415;28;20694;-82
2023/10/15 15:40:41;;;;;;;3.70;2.40;;;;;;;17.71;36.90;99213.06;6944835;28;20294;-85
2023/10/15 15:44:02;;;;;;;6.00;3.40;;;;;;;17.49;36.79;99207.41;6946133;28;20297;-81
2023/10/15 15:47:24;;;;;;;2.83;2.30;;;;;;;17.39;35.92;99200.91;6939927;28;20233;-81
2023/10/15 15:50:47;;;;;;;2.23;2.03;;;;;;;17.38;36.61;99207.41;6936118;28;20264;-82
2023/10/15 15:54:09;;;;;;;4.00;2.60;;;;;;;17.40;35.34;99197.13;6944906;28;20199;-82
2023/10/15 15:57:31;;;;;;;5.90;3.90;;;;;;;17.56;36.54;99202.66;6937026;28;20252;-82